Time;durP1;ratioP1;P1;durP2;ratioP2;P2;SDS_P1;SDS_P2;PMS_P1;PMS_P2;Temp;Humidity;BMP_temperature;BMP_pressure;BME280_temperature;BME280_humidity;BME280_pressure;Samples;Min_cycle;Max_cycle;Signal;HPM_P1;HPM_P2
2022/03/09 00:03:57;;;;;;;2.23;1.40;;;;;;;;;;21155494;28;20204;-80
2022/03/09 00:13:58;;;;;;;1.70;1.23;;;3.60;99.90;;;;;;21141646;28;20804;-81
2022/03/09 00:24:00;;;;;;;1.50;1.17;;;;;;;;;;21125181;28;20748;-80
2022/03/09 00:34:02;;;;;;;2.30;1.40;;;;;;;;;;21107494;28;20280;-81
2022/03/09 00:44:04;;;;;;;2.77;1.20;;;;;;;;;;21114020;28;20766;-81
2022/03/09 00:54:06;;;;;;;1.23;0.90;;;;;;;;;;21124381;28;20952;-81
2022/03/09 01:04:07;;;;;;;1.83;1.37;;;;;;;;;;21132826;28;20208;-81
2022/03/09 01:14:09;;;;;;;1.93;1.30;;;;;;;;;;21122444;28;20292;-81
2022/03/09 01:24:12;;;;;;;1.80;1.20;;;;;;;;;;21173794;28;20272;-81
2022/03/09 01:34:14;;;;;;;1.50;1.03;;;;;;;;;;21121550;28;20223;-82
2022/03/09 01:44:19;;;;;;;2.30;1.73;;;;;;;;;;21143075;28;20225;-82
2022/03/09 01:54:20;;;;;;;2.13;1.27;;;;;;;;;;21138259;28;20212;-82
2022/03/09 02:04:27;;;;;;;1.57;1.00;;;;;;;;;;21136322;28;20276;-81
2022/03/09 02:14:29;;;;;;;1.73;1.10;;;;;;;;;;21134227;28;20231;-82
2022/03/09 02:24:31;;;;;;;1.23;0.93;;;;;;;;;;21120701;28;20203;-82
2022/03/09 02:34:33;;;;;;;1.53;1.00;;;;;;;;;;21134891;28;20281;-83
2022/03/09 02:44:34;;;;;;;1.10;0.90;;;;;;;;;;21116423;28;20223;-83
2022/03/09 02:54:36;;;;;;;1.30;0.90;;;;;;;;;;21100010;28;20223;-82
2022/03/09 03:04:38;;;;;;;0.83;0.80;;;;;;;;;;21114674;28;20217;-82
2022/03/09 03:14:40;;;;;;;2.53;1.60;;;;;;;;;;21113313;28;20261;-83
2022/03/09 03:24:41;;;;;;;0.80;0.63;;;;;;;;;;21123444;28;20200;-81
2022/03/09 03:34:43;;;;;;;1.17;0.93;;;;;;;;;;21125265;28;20220;-82
2022/03/09 03:44:44;;;;;;;2.23;0.93;;;;;;;;;;21110401;28;20223;-80
2022/03/09 03:54:46;;;;;;;2.03;1.30;;;;;;;;;;21125633;28;20261;-80
2022/03/09 04:04:50;;;;;;;0.90;0.80;;;;;;;;;;21108911;28;20241;-82
2022/03/09 04:14:52;;;;;;;1.23;1.13;;;;;;;;;;21109091;28;20284;-82
2022/03/09 04:24:54;;;;;;;1.47;1.20;;;;;;;;;;21107359;28;20203;-81
2022/03/09 04:34:56;;;;;;;1.80;1.13;;;;;;;;;;21110861;28;20227;-78
2022/03/09 04:44:58;;;;;;;1.10;0.90;;;;;;;;;;21157893;28;20289;-79
2022/03/09 04:55:00;;;;;;;6.80;1.10;;;;;;;;;;21138785;28;20227;-78
2022/03/09 05:05:02;;;;;;;1.30;0.70;;;;;;;;;;21122296;28;20257;-78
2022/03/09 05:15:05;;;;;;;0.93;0.83;;;1.30;99.90;;;;;;21164255;28;20693;-79
2022/03/09 05:25:06;;;;;;;1.37;1.10;;;;;;;;;;21137599;28;20242;-78
2022/03/09 05:35:12;;;;;;;2.27;1.33;;;;;;;;;;21137581;28;20224;-79
2022/03/09 05:45:13;;;;;;;0.77;0.77;;;;;;;;;;21153676;28;20219;-79
2022/03/09 05:55:15;;;;;;;1.77;1.40;;;;;;;;;;21152338;28;20224;-79
2022/03/09 06:05:16;;;;;;;1.27;1.17;;;;;;;;;;21134321;28;20269;-79
2022/03/09 06:15:18;;;;;;;2.27;1.40;;;0.00;99.90;;;;;;21133696;28;20243;-79
2022/03/09 06:25:20;;;;;;;1.33;1.03;;;;;;;;;;21139991;27;20233;-79
2022/03/09 06:35:24;;;;;;;4.73;2.00;;;1.20;99.90;;;;;;21108348;28;20220;-79
2022/03/09 06:45:27;;;;;;;1.70;1.40;;;1.20;99.90;;;;;;21113460;28;20624;-79
2022/03/09 06:55:29;;;;;;;5.00;2.20;;;;;;;;;;21104026;28;20783;-77
2022/03/09 07:05:30;;;;;;;1.50;1.23;;;;;;;;;;21061151;28;20257;-78
2022/03/09 07:15:32;;;;;;;2.70;1.13;;;;;;;;;;21071177;28;20289;-80
2022/03/09 07:25:34;;;;;;;2.07;1.60;;;;;;;;;;21094978;28;20212;-85
2022/03/09 07:35:36;;;;;;;3.67;1.87;;;;;;;;;;21111622;28;20227;-79
2022/03/09 07:45:37;;;;;;;1.53;0.97;;;;;;;;;;21070892;28;20937;-80
2022/03/09 07:55:39;;;;;;;2.00;1.50;;;;;;;;;;21057310;28;20228;-80
2022/03/09 08:05:43;;;;;;;3.10;1.80;;;;;;;;;;21070956;28;20212;-80
2022/03/09 08:15:45;;;;;;;1.70;1.37;;;;;;;;;;21122098;28;20232;-81
2022/03/09 08:25:47;;;;;;;1.73;1.30;;;;;;;;;;21161637;27;20211;-81
2022/03/09 08:35:49;;;;;;;1.50;1.10;;;;;;;;;;21227398;28;20280;-82
2022/03/09 08:45:50;;;;;;;2.33;1.27;;;;;;;;;;21189900;28;20286;-80
2022/03/09 08:55:52;;;;;;;2.20;1.50;;;;;;;;;;21206692;28;20227;-82
2022/03/09 09:05:53;;;;;;;2.47;1.70;;;;;;;;;;21206563;28;20207;-82
2022/03/09 09:26:18;;;;;;;1.27;1.10;;;;;;;;;;20861873;28;20271;-65
2022/03/09 09:36:20;;;;;;;1.80;1.50;;;;;;;;;;20866943;28;20226;-64
2022/03/09 09:46:22;;;;;;;1.60;1.20;;;;;;;;;;20923493;28;20210;-65
2022/03/09 09:56:24;;;;;;;3.03;1.93;;;;;;;;;;20884222;28;20229;-65
2022/03/09 10:06:26;;;;;;;2.03;1.37;;;;;;;;;;20941883;28;20209;-65
2022/03/09 10:26:45;;;;;;;2.40;1.73;;;;;;;;;;21250214;27;20585;-64
2022/03/09 10:37:00;;;;;;;2.40;1.40;;;8.90;99.90;;;;;;21186698;27;20227;-64
2022/03/09 10:47:02;;;;;;;2.63;1.60;;;;;;;;;;21177519;28;20249;-64
2022/03/09 10:57:10;;;;;;;5.70;2.00;;;9.10;99.90;;;;;;21159608;27;20208;-64
2022/03/09 11:07:12;;;;;;;2.47;1.47;;;;;;;;;;21175664;28;20240;-64
2022/03/09 11:17:16;;;;;;;2.73;1.83;;;;;;;;;;21167930;28;20754;-63
2022/03/09 11:27:17;;;;;;;3.73;2.17;;;10.00;99.90;;;;;;21198128;27;20215;-63
2022/03/09 11:37:33;;;;;;;2.20;1.70;;;;;;;;;;21089349;28;20626;-64
2022/03/09 11:47:54;;;;;;;3.17;1.80;;;10.10;99.90;;;;;;21127909;28;20690;-64
2022/03/09 11:57:55;;;;;;;2.93;1.43;;;;;;;;;;21115266;28;20272;-64
2022/03/09 12:08:03;;;;;;;2.27;1.47;;;10.50;98.90;;;;;;21144976;28;20413;-64
2022/03/09 12:18:35;;;;;;;3.83;2.20;;;10.40;99.90;;;;;;21113704;28;20277;-65
2022/03/09 12:28:37;;;;;;;4.20;1.70;;;;;;;;;;21095536;28;20220;-65
2022/03/09 12:38:42;;;;;;;3.17;1.80;;;10.90;99.40;;;;;;21145232;28;20623;-66
2022/03/09 12:48:44;;;;;;;3.20;1.90;;;11.50;99.90;;;;;;21110084;28;20640;-65
2022/03/09 12:58:47;;;;;;;3.03;1.93;;;10.30;99.90;;;;;;21113766;28;20242;-65
2022/03/09 13:08:49;;;;;;;6.07;1.77;;;;;;;;;;21105149;28;20268;-65
2022/03/09 13:18:53;;;;;;;3.50;1.40;;;;;;;;;;21109931;28;20224;-65
2022/03/09 13:29:01;;;;;;;2.80;1.83;;;11.70;99.90;;;;;;21138540;28;20296;-66
2022/03/09 13:39:03;;;;;;;3.30;1.93;;;;;;;;;;21118844;28;20245;-66
2022/03/09 13:49:13;;;;;;;2.77;2.07;;;11.80;99.90;;;;;;21140010;28;20686;-66
2022/03/09 13:59:15;;;;;;;4.40;1.90;;;;;;;;;;21121798;28;20621;-65
2022/03/09 14:09:19;;;;;;;6.97;2.47;;;;;;;;;;21121397;28;20215;-65
2022/03/09 14:19:22;;;;;;;2.60;1.63;;;11.90;92.10;;;;;;21120755;28;20215;-65
2022/03/09 14:29:25;;;;;;;1.97;1.17;;;;;;;;;;21120611;28;20264;-66
2022/03/09 14:39:27;;;;;;;2.60;1.60;;;;;;;;;;21103620;28;20204;-66
2022/03/09 14:49:29;;;;;;;2.90;1.17;;;;;;;;;;21102705;28;20551;-66
2022/03/09 14:59:32;;;;;;;2.90;1.70;;;;;;;;;;21102505;28;20241;-65
2022/03/09 15:09:34;;;;;;;5.27;1.77;;;11.40;99.90;;;;;;21129837;28;20284;-66
2022/03/09 15:19:36;;;;;;;2.40;1.40;;;;;;;;;;21135640;28;20269;-65
2022/03/09 15:29:38;;;;;;;3.33;1.90;;;;;;;;;;21118183;28;20215;-65
2022/03/09 15:39:40;;;;;;;2.47;1.50;;;;;;;;;;21117802;28;20230;-66
2022/03/09 15:49:41;;;;;;;2.67;1.47;;;10.00;99.20;;;;;;21102380;28;20598;-65
2022/03/09 15:59:44;;;;;;;2.47;1.63;;;;;;;;;;21127663;28;20296;-65
2022/03/09 16:09:45;;;;;;;2.50;1.33;;;;;;;;;;21115025;28;20249;-65
2022/03/09 16:19:47;;;;;;;3.27;1.77;;;;;;;;;;21075702;22;20217;-65
2022/03/09 16:29:49;;;;;;;3.10;1.50;;;;;;;;;;20945236;28;20491;-64
2022/03/09 16:39:51;;;;;;;7.50;2.47;;;9.00;99.90;;;;;;20952096;28;20274;-64
2022/03/09 16:49:53;;;;;;;3.47;1.30;;;;;;;;;;20927914;28;20221;-65
2022/03/09 16:59:55;;;;;;;2.57;1.33;;;9.60;99.90;;;;;;20926192;28;20368;-65
2022/03/09 17:09:57;;;;;;;2.33;1.60;;;;;;;;;;20974149;28;20278;-65
2022/03/09 17:20:00;;;;;;;3.00;1.90;;;9.50;99.90;;;;;;21040530;28;20649;-64
2022/03/09 17:30:03;;;;;;;5.23;3.10;;;;;;;;;;20936966;28;20294;-64
2022/03/09 17:40:06;;;;;;;3.80;2.43;;;;;;;;;;20944544;28;20209;-64
2022/03/09 17:50:09;;;;;;;7.93;2.43;;;8.60;99.90;;;;;;20945485;28;20291;-66
2022/03/09 18:00:11;;;;;;;5.03;2.33;;;8.70;99.90;;;;;;20913784;28;20270;-66
2022/03/09 18:10:13;;;;;;;3.37;2.00;;;;;;;;;;20874540;28;20228;-66
2022/03/09 18:20:16;;;;;;;4.63;2.63;;;;;;;;;;20938430;28;20762;-64
2022/03/09 18:30:17;;;;;;;8.33;2.93;;;;;;;;;;20918887;28;20213;-63
2022/03/09 18:40:19;;;;;;;3.77;2.47;;;;;;;;;;20946593;28;20213;-63
2022/03/09 18:50:21;;;;;;;9.13;3.57;;;;;;;;;;20974882;28;20225;-63
2022/03/09 19:00:23;;;;;;;5.33;3.53;;;;;;;;;;20937894;28;20267;-65
2022/03/09 19:10:25;;;;;;;6.87;2.40;;;;;;;;;;20933106;28;20217;-65
2022/03/09 19:20:28;;;;;;;5.10;2.00;;;;;;;;;;20942209;28;20251;-65
2022/03/09 19:30:31;;;;;;;3.83;2.27;;;;;;;;;;20953333;28;20225;-65
2022/03/09 19:40:33;;;;;;;3.53;2.70;;;;;;;;;;20920671;28;20217;-65
2022/03/09 19:50:36;;;;;;;4.87;3.07;;;;;;;;;;20952973;28;20595;-65
2022/03/09 20:00:38;;;;;;;3.67;2.20;;;;;;;;;;20938454;28;20255;-65
2022/03/09 20:10:40;;;;;;;3.23;2.10;;;;;;;;;;20940951;28;20213;-65
2022/03/09 20:20:43;;;;;;;4.87;2.93;;;;;;;;;;20940103;28;20362;-64
2022/03/09 20:30:45;;;;;;;3.30;2.40;;;;;;;;;;20956132;28;20217;-65
2022/03/09 20:40:46;;;;;;;3.47;2.17;;;;;;;;;;20926008;28;20205;-64
2022/03/09 20:50:48;;;;;;;4.03;2.47;;;;;;;;;;20936016;28;20217;-64
2022/03/09 21:00:50;;;;;;;3.80;2.30;;;;;;;;;;20926224;28;20613;-65
2022/03/09 21:10:53;;;;;;;5.47;3.03;;;;;;;;;;20964076;28;20266;-64
2022/03/09 21:20:54;;;;;;;4.47;2.77;;;;;;;;;;20918377;28;20225;-65
2022/03/09 21:30:56;;;;;;;6.07;2.80;;;;;;;;;;20937124;28;20573;-65
2022/03/09 21:40:58;;;;;;;4.67;2.53;;;;;;;;;;20918509;28;20225;-65
2022/03/09 21:51:00;;;;;;;5.03;2.57;;;;;;;;;;20923264;28;20213;-65
2022/03/09 22:01:02;;;;;;;4.03;2.70;;;;;;;;;;20957864;28;20226;-64
2022/03/09 22:11:03;;;;;;;3.80;2.40;;;;;;;;;;20955703;28;20291;-64
2022/03/09 22:21:05;;;;;;;4.30;2.47;;;;;;;;;;20938245;28;20254;-64
2022/03/09 22:31:08;;;;;;;4.43;2.57;;;;;;;;;;20962612;28;20224;-64
2022/03/09 22:41:09;;;;;;;4.13;2.07;;;;;;;;;;20915025;22;20225;-84
2022/03/09 22:51:12;;;;;;;3.87;2.67;;;;;;;;;;20830389;28;20222;-83
2022/03/09 23:01:13;;;;;;;4.30;2.63;;;;;;;;;;20774257;28;20218;-83
2022/03/09 23:11:17;;;;;;;3.23;2.57;;;;;;;;;;20792009;28;20222;-83
2022/03/09 23:21:19;;;;;;;4.33;2.80;;;;;;;;;;20789784;28;20237;-83
2022/03/09 23:31:21;;;;;;;3.47;2.20;;;;;;;;;;20768237;28;20696;-82
2022/03/09 23:41:23;;;;;;;3.87;2.17;;;;;;;;;;20788057;28;20592;-83
2022/03/09 23:51:25;;;;;;;4.40;2.70;;;;;;;;;;20829877;28;20277;-82
